Time;durP1;ratioP1;P1;durP2;ratioP2;P2;SDS_P1;SDS_P2;PMS_P1;PMS_P2;Temp;Humidity;BMP_temperature;BMP_pressure;BME280_temperature;BME280_humidity;BME280_pressure;Samples;Min_cycle;Max_cycle;Signal;HPM_P1;HPM_P2
2023/02/28 00:00:36;;;;;;;;;;;-1.00;99.90;;;-2.03;100.00;98400.38;5035841;28;1514;-63
2023/02/28 00:03:03;;;;;;;;;;;-1.10;99.90;;;-2.10;100.00;98401.94;5042646;28;1575;-63
2023/02/28 00:05:30;;;;;;;;;;;-1.20;99.90;;;-2.23;100.00;98398.28;5028923;28;1541;-63
2023/02/28 00:07:57;;;;;;;;;;;-1.30;99.90;;;-2.17;100.00;98411.13;5039289;28;1599;-63
2023/02/28 00:10:27;;;;;;;;;;;-1.40;99.90;;;-2.29;100.00;98399.84;5040894;28;1544;-63
2023/02/28 00:12:58;;;;;;;;;;;-1.40;99.90;;;-2.30;100.00;98411.69;5058025;28;1906;-64
2023/02/28 00:15:25;;;;;;;;;;;-1.50;99.90;;;-2.42;100.00;98413.97;5041444;28;1588;-64
2023/02/28 00:17:52;;;;;;;;;;;-1.50;99.90;;;-2.37;100.00;98404.78;5044264;28;1556;-63
2023/02/28 00:20:19;;;;;;;;;;;-1.60;99.90;;;-2.46;100.00;98414.72;5041698;28;1631;-63
2023/02/28 00:22:51;;;;;;;;;;;-1.60;99.90;;;-2.47;100.00;98400.28;5044409;28;1538;-63
2023/02/28 00:25:21;;;;;;;;;;;-1.70;99.90;;;-2.52;100.00;98406.13;5041439;28;1477;-64
2023/02/28 00:27:48;;;;;;;;;;;-1.70;99.90;;;-2.58;100.00;98403.47;5036387;28;1551;-63
2023/02/28 00:30:20;;;;;;;;;;;-1.70;99.90;;;-2.65;100.00;98403.28;5039964;28;1557;-64
2023/02/28 00:32:47;;;;;;;;;;;-1.70;99.90;;;-2.61;100.00;98411.00;5041994;28;1906;-64
2023/02/28 00:35:17;;;;;;;;;;;-1.80;99.90;;;-2.70;100.00;98410.78;5039591;28;1481;-64
2023/02/28 00:37:43;;;;;;;;;;;-1.80;99.90;;;-2.72;100.00;98409.91;5041026;28;1608;-63
2023/02/28 00:40:11;;;;;;;;;;;-1.80;99.90;;;-2.74;100.00;98409.00;5038131;28;1492;-64
2023/02/28 00:42:39;;;;;;;;;;;-1.90;99.90;;;-2.80;100.00;98414.81;5023377;28;1513;-64
2023/02/28 00:45:06;;;;;;;;;;;-1.90;99.90;;;-2.79;100.00;98415.66;5041683;28;1664;-63
2023/02/28 00:47:33;;;;;;;;;;;-1.90;99.90;;;-2.79;100.00;98416.50;5042433;28;1540;-64
2023/02/28 00:50:00;;;;;;;;;;;-2.00;99.90;;;-2.79;100.00;98413.13;5040729;28;1636;-63
2023/02/28 00:52:27;;;;;;;;;;;-2.00;99.90;;;-2.79;100.00;98408.88;5039871;28;1930;-63
2023/02/28 00:54:54;;;;;;;;;;;-2.00;99.90;;;-2.91;100.00;98416.22;5038373;28;1786;-63
2023/02/28 00:57:21;;;;;;;;;;;-2.00;99.90;;;-2.85;100.00;98413.84;5039667;28;1674;-63
2023/02/28 00:59:48;;;;;;;;;;;-2.00;99.90;;;-2.94;100.00;98416.16;5041551;28;1617;-63
2023/02/28 01:02:15;;;;;;;;;;;-2.10;99.90;;;-2.92;100.00;98411.09;5037489;28;1496;-63
2023/02/28 01:04:42;;;;;;;;;;;-2.10;99.90;;;-2.91;100.00;98417.91;5042867;28;1473;-63
2023/02/28 01:07:08;;;;;;;;;;;-2.10;99.90;;;-2.96;100.00;98417.81;5041156;28;1493;-64
2023/02/28 01:09:35;;;;;;;;;;;-2.10;99.90;;;-3.03;100.00;98418.47;5040729;28;1385;-64
2023/02/28 01:12:02;;;;;;;;;;;-2.10;99.90;;;-3.05;100.00;98418.44;5040610;28;1989;-63
2023/02/28 01:14:29;;;;;;;;;;;-2.20;99.90;;;-3.03;100.00;98419.34;5042437;28;1538;-64
2023/02/28 01:16:56;;;;;;;;;;;-2.20;99.90;;;-3.10;100.00;98416.59;5039615;28;1563;-63
2023/02/28 01:19:23;;;;;;;;;;;-2.20;99.90;;;-3.09;100.00;98424.25;5040432;28;1568;-64
2023/02/28 01:21:50;;;;;;;;;;;-2.20;99.90;;;-3.03;100.00;98415.94;5045375;28;1615;-64
2023/02/28 01:24:17;;;;;;;;;;;-2.20;99.90;;;-3.04;100.00;98427.75;5037931;28;1549;-62
2023/02/28 01:26:43;;;;;;;;;;;-2.20;99.90;;;-3.08;100.00;98427.66;5035525;28;1540;-63
2023/02/28 01:29:10;;;;;;;;;;;-2.20;99.90;;;-3.18;100.00;98424.03;5037980;28;1893;-63
2023/02/28 01:31:37;;;;;;;;;;;-2.30;99.90;;;-3.25;100.00;98417.94;5042764;28;1902;-63
2023/02/28 01:34:04;;;;;;;;;;;-2.30;99.90;;;-3.28;100.00;98424.63;5039406;28;1682;-62
2023/02/28 01:36:31;;;;;;;;;;;-2.30;99.90;;;-3.37;100.00;98427.78;5026474;28;1396;-64
2023/02/28 01:38:58;;;;;;;;;;;-2.40;99.90;;;-3.25;100.00;98423.00;5042677;28;1708;-64
2023/02/28 01:41:28;;;;;;;;;;;-2.40;99.90;;;-3.29;100.00;98421.19;5042315;28;1651;-62
2023/02/28 01:43:59;;;;;;;;;;;-2.40;99.90;;;-3.27;100.00;98422.09;5042607;28;2097;-64
2023/02/28 01:46:26;;;;;;;;;;;-2.40;99.90;;;-3.29;100.00;98417.81;5042154;28;1537;-64
2023/02/28 01:49:07;;;;;;;;;;;-2.40;99.90;;;-3.32;100.00;98420.28;5041192;28;1538;-63
2023/02/28 01:51:45;;;;;;;;;;;-2.40;99.90;;;-3.36;100.00;98416.78;5037400;28;1926;-64
2023/02/28 01:54:15;;;;;;;;;;;-2.40;99.90;;;-3.25;100.00;98417.06;5045838;28;1536;-63
2023/02/28 01:56:47;;;;;;;;;;;-2.40;99.90;;;-3.22;100.00;98412.06;5064689;28;1574;-63
2023/02/28 01:59:46;;;;;;;;;;;-2.40;99.90;;;-3.23;100.00;98413.75;5041065;28;1945;-64
2023/02/28 02:02:13;;;;;;;;;;;-2.40;99.90;;;-3.35;100.00;98410.91;5039142;28;1665;-64
2023/02/28 02:04:51;;;;;;;;;;;-2.40;99.90;;;-3.34;100.00;98409.22;5039512;28;1822;-64
2023/02/28 02:07:18;;;;;;;;;;;-2.40;99.90;;;-3.34;100.00;98411.75;5065915;28;2207;-63
2023/02/28 02:09:45;;;;;;;;;;;-2.40;99.90;;;-3.42;100.00;98414.09;5048561;28;1581;-63
2023/02/28 02:12:37;;;;;;;;;;;-2.40;99.90;;;-3.40;100.00;98417.53;5046295;28;1996;-63
2023/02/28 02:15:17;;;;;;;;;;;-2.50;99.90;;;-3.40;100.00;98412.44;5046356;28;1576;-64
2023/02/28 02:17:52;;;;;;;;;;;-2.60;99.90;;;-3.44;100.00;98409.00;5067696;28;1522;-63
2023/02/28 02:20:28;;;;;;;;;;;-2.60;99.90;;;-3.45;100.00;98401.31;5046979;28;1486;-64
2023/02/28 02:23:07;;;;;;;;;;;-2.60;99.90;;;-3.42;100.00;98393.78;5045445;28;1552;-64
2023/02/28 02:25:54;;;;;;;;;;;-2.60;99.90;;;-3.48;100.00;98402.09;5047991;28;1516;-64
2023/02/28 02:28:56;;;;;;;;;;;-2.60;99.90;;;-3.47;100.00;98402.97;5042379;28;1547;-64
2023/02/28 02:31:32;;;;;;;;;;;-2.60;99.90;;;-3.45;100.00;98402.19;5010024;28;1238;-63
2023/02/28 02:34:22;;;;;;;;;;;-2.60;99.90;;;-3.49;100.00;98399.53;5045680;28;1914;-64
2023/02/28 02:37:30;;;;;;;;;;;-2.50;99.90;;;-3.48;100.00;98403.78;5048063;28;1548;-63
2023/02/28 02:40:16;;;;;;;;;;;-2.60;99.90;;;-3.50;100.00;98398.66;5038478;28;1528;-63
2023/02/28 02:43:00;;;;;;;;;;;-2.60;99.90;;;-3.59;100.00;98404.34;5046423;28;1647;-64
2023/02/28 02:45:38;;;;;;;;;;;-2.70;99.90;;;-3.62;100.00;98406.81;5047892;28;1770;-64
2023/02/28 02:48:07;;;;;;;;;;;-2.70;99.90;;;-3.64;100.00;98397.44;5030449;28;1529;-64
2023/02/28 02:50:42;;;;;;;;;;;-2.70;99.90;;;-3.71;100.00;98406.56;5064012;28;1558;-64
2023/02/28 02:53:11;;;;;;;;;;;-2.80;99.90;;;-3.75;100.00;98407.31;5048424;28;1926;-64
2023/02/28 02:55:40;;;;;;;;;;;-2.80;99.90;;;-3.76;100.00;98407.25;5048101;28;1596;-64
2023/02/28 02:58:10;;;;;;;;;;;-2.80;99.90;;;-3.70;100.00;98402.34;5046469;28;1564;-64
2023/02/28 03:00:41;;;;;;;;;;;-2.80;99.90;;;-3.77;100.00;98408.94;5062951;28;1729;-64
2023/02/28 03:03:09;;;;;;;;;;;-2.90;99.90;;;-3.77;100.00;98411.47;5046324;28;1485;-64
2023/02/28 03:05:45;;;;;;;;;;;-2.90;99.90;;;-3.79;100.00;98402.97;5046050;28;1540;-64
2023/02/28 03:08:12;;;;;;;;;;;-2.90;99.90;;;-3.75;100.00;98408.97;5044175;28;1524;-64
2023/02/28 03:10:45;;;;;;;;;;;-2.90;99.90;;;-3.79;100.00;98413.09;5048107;28;1536;-63
2023/02/28 03:13:19;;;;;;;;;;;-2.90;99.90;;;-3.85;100.00;98413.81;5046609;28;1902;-63
2023/02/28 03:16:11;;;;;;;;;;;-3.00;99.90;;;-3.84;100.00;98409.59;5046706;28;1514;-64
2023/02/28 03:18:59;;;;;;;;;;;-3.00;99.90;;;-3.88;100.00;98410.31;5044839;28;1597;-63
2023/02/28 03:22:17;;;;;;;;;;;-3.00;99.90;;;-3.87;100.00;98412.06;5047525;28;1572;-64
2023/02/28 03:24:50;;;;;;;;;;;-3.00;99.90;;;-3.90;100.00;98406.88;5026172;28;1506;-63
2023/02/28 03:27:27;;;;;;;;;;;-3.00;99.90;;;-3.95;100.00;98405.91;5044371;28;1497;-64
2023/02/28 03:30:02;;;;;;;;;;;-3.00;99.90;;;-3.91;100.00;98405.16;5046008;28;1617;-66
2023/02/28 03:32:29;;;;;;;;;;;-3.00;99.90;;;-3.90;100.00;98405.22;5046304;28;1988;-64
2023/02/28 03:35:06;;;;;;;;;;;-3.00;99.90;;;-3.88;100.00;98411.16;5047105;28;1260;-64
2023/02/28 03:37:36;;;;;;;;;;;-3.00;99.90;;;-3.94;100.00;98405.09;5045224;28;1548;-65
2023/02/28 03:40:16;;;;;;;;;;;-3.10;99.90;;;-3.98;100.00;98401.59;5068604;28;1534;-65
2023/02/28 03:42:47;;;;;;;;;;;-3.10;99.90;;;-3.94;100.00;98395.81;5037707;28;1801;-65
2023/02/28 03:45:18;;;;;;;;;;;-3.10;99.90;;;-3.97;100.00;98394.84;5039549;28;1596;-64
2023/02/28 03:47:57;;;;;;;;;;;-3.00;99.90;;;-4.02;100.00;98405.72;5047275;28;1532;-64
2023/02/28 03:50:27;;;;;;;;;;;-3.10;99.90;;;-3.96;100.00;98402.50;5044799;28;1513;-62
2023/02/28 03:53:06;;;;;;;;;;;-3.10;99.90;;;-4.02;100.00;98400.63;5044018;28;1902;-65
2023/02/28 03:55:47;;;;;;;;;;;-3.10;99.90;;;-4.03;100.00;98404.00;5040927;28;1530;-64
2023/02/28 03:58:29;;;;;;;;;;;-3.10;99.90;;;-4.01;100.00;98401.53;5065306;28;996;-64
2023/02/28 04:01:07;;;;;;;;;;;-3.10;99.90;;;-4.02;100.00;98402.31;5045103;28;1589;-65
2023/02/28 04:03:38;;;;;;;;;;;-3.20;99.90;;;-4.01;100.00;98404.91;5043164;28;1480;-65
2023/02/28 04:06:15;;;;;;;;;;;-3.10;99.90;;;-4.06;100.00;98405.56;5043217;28;1571;-64
2023/02/28 04:08:42;;;;;;;;;;;-3.10;99.90;;;-4.07;100.00;98407.25;5059192;28;1495;-65
2023/02/28 04:11:38;;;;;;;;;;;-3.10;99.90;;;-4.05;100.00;98402.25;5044218;28;1651;-65
2023/02/28 04:14:07;;;;;;;;;;;-3.10;99.90;;;-4.06;100.00;98403.94;5038597;28;1973;-65
2023/02/28 04:16:35;;;;;;;;;;;-3.20;99.90;;;-4.07;100.00;98399.66;5044891;28;1563;-65
2023/02/28 04:19:04;;;;;;;;;;;-3.20;99.90;;;-4.03;100.00;98398.06;5036709;28;1521;-64
2023/02/28 04:21:40;;;;;;;;;;;-3.20;99.90;;;-4.11;100.00;98392.78;5046117;28;1731;-64
2023/02/28 04:24:13;;;;;;;;;;;-3.20;99.90;;;-4.09;100.00;98400.44;5045560;28;1545;-64
2023/02/28 04:26:43;;;;;;;;;;;-3.20;99.90;;;-4.04;100.00;98399.75;5039037;28;1536;-65
2023/02/28 04:29:13;;;;;;;;;;;-3.20;99.90;;;-4.08;100.00;98395.41;5044629;28;1644;-65
2023/02/28 04:31:39;;;;;;;;;;;-3.20;99.90;;;-4.08;100.00;98404.66;5036901;28;989;-65
2023/02/28 04:34:06;;;;;;;;;;;-3.20;99.90;;;-4.08;100.00;98404.66;5043289;28;1906;-65
2023/02/28 04:36:33;;;;;;;;;;;-3.20;99.90;;;-4.11;100.00;98404.59;5045303;28;1623;-65
2023/02/28 04:39:01;;;;;;;;;;;-3.20;99.90;;;-4.12;100.00;98403.75;5043572;28;1542;-65
2023/02/28 04:41:27;;;;;;;;;;;-3.30;99.90;;;-4.13;100.00;98401.16;5045257;28;1552;-65
2023/02/28 04:43:58;;;;;;;;;;;-3.20;99.90;;;-4.11;100.00;98397.84;5044896;28;1605;-65
2023/02/28 04:46:25;;;;;;;;;;;-3.20;99.90;;;-4.17;100.00;98402.75;5045637;28;1548;-65
2023/02/28 04:48:53;;;;;;;;;;;-3.20;99.90;;;-4.13;100.00;98404.53;5043875;28;1445;-65
2023/02/28 04:51:20;;;;;;;;;;;-3.30;99.90;;;-4.09;100.00;98403.81;5045508;28;1572;-65
2023/02/28 04:53:47;;;;;;;;;;;-3.30;99.90;;;-4.18;100.00;98403.56;5044397;28;1906;-65
2023/02/28 04:56:16;;;;;;;;;;;-3.20;99.90;;;-4.17;100.00;98406.94;5038888;28;1768;-65
2023/02/28 04:58:43;;;;;;;;;;;-3.30;99.90;;;-4.19;100.00;98411.13;5044764;28;1617;-65
2023/02/28 05:01:36;;;;;;;;;;;-3.30;99.90;;;-4.17;100.00;98414.56;5043680;28;1536;-65
2023/02/28 05:04:04;;;;;;;;;;;-3.30;99.90;;;-4.19;100.00;98406.94;5039754;28;1498;-65
2023/02/28 05:06:32;;;;;;;;;;;-3.30;99.90;;;-4.16;100.00;98412.06;5045177;28;1541;-65
2023/02/28 05:08:59;;;;;;;;;;;-3.30;99.90;;;-4.13;100.00;98408.75;5045739;28;1513;-65
2023/02/28 05:11:29;;;;;;;;;;;-3.30;99.90;;;-4.21;100.00;98413.63;5043741;28;1552;-64
2023/02/28 05:13:56;;;;;;;;;;;-3.30;99.90;;;-4.17;100.00;98412.91;5034800;28;1989;-64
2023/02/28 05:16:23;;;;;;;;;;;-3.30;99.90;;;-4.17;100.00;98409.47;5037863;28;1548;-64
2023/02/28 05:18:50;;;;;;;;;;;-3.20;99.90;;;-4.20;100.00;98412.78;5047129;28;1537;-65
2023/02/28 05:21:27;;;;;;;;;;;-3.30;99.90;;;-4.23;100.00;98410.19;5046266;28;1534;-65
2023/02/28 05:23:56;;;;;;;;;;;-3.30;99.90;;;-4.12;100.00;98405.44;5042035;28;1572;-64
2023/02/28 05:26:25;;;;;;;;;;;-3.30;99.90;;;-4.24;100.00;98416.06;5049740;28;1517;-64
2023/02/28 05:28:52;;;;;;;;;;;-3.30;99.90;;;-4.16;100.00;98412.06;5049084;28;1544;-65
2023/02/28 05:31:19;;;;;;;;;;;-3.30;99.90;;;-4.18;100.00;98418.78;5049147;28;1607;-65
2023/02/28 05:33:46;;;;;;;;;;;-3.30;99.90;;;-4.16;100.00;98426.44;5050129;28;1910;-65
2023/02/28 05:36:13;;;;;;;;;;;-3.20;99.90;;;-4.17;100.00;98425.56;5048884;28;1556;-65
2023/02/28 05:38:40;;;;;;;;;;;-3.30;99.90;;;-4.17;100.00;98423.03;5046369;28;1620;-65
2023/02/28 05:41:10;;;;;;;;;;;-3.30;99.90;;;-4.13;100.00;98426.50;5047075;28;1600;-65
2023/02/28 05:43:37;;;;;;;;;;;-3.20;99.90;;;-4.14;100.00;98427.34;5050604;28;1657;-65
2023/02/28 05:46:05;;;;;;;;;;;-3.20;99.90;;;-4.10;100.00;98424.09;5049960;28;1688;-64
2023/02/28 05:48:34;;;;;;;;;;;-3.20;99.90;;;-4.19;100.00;98436.50;5048393;28;1630;-65
2023/02/28 05:51:02;;;;;;;;;;;-3.20;99.90;;;-4.18;100.00;98428.91;5047180;28;1703;-65
2023/02/28 05:53:29;;;;;;;;;;;-3.20;99.90;;;-4.18;100.00;98438.19;5050487;28;1902;-65
2023/02/28 05:55:56;;;;;;;;;;;-3.30;99.90;;;-4.16;100.00;98434.88;5048367;28;1568;-65
2023/02/28 05:58:25;;;;;;;;;;;-3.20;99.90;;;-4.19;100.00;98439.03;5050119;28;1536;-65
2023/02/28 06:00:52;;;;;;;;;;;-3.30;99.90;;;-4.23;100.00;98441.44;5041550;28;1612;-65
2023/02/28 06:03:19;;;;;;;;;;;-3.30;99.90;;;-4.21;100.00;98433.91;5045370;28;1545;-65
2023/02/28 06:05:47;;;;;;;;;;;-3.30;99.90;;;-4.15;100.00;98435.75;5043799;28;1591;-65
2023/02/28 06:08:13;;;;;;;;;;;-3.30;99.90;;;-4.15;100.00;98434.09;5044441;28;1592;-65
2023/02/28 06:10:40;;;;;;;;;;;-3.30;99.90;;;-4.15;100.00;98439.16;5046495;28;1460;-65
2023/02/28 06:13:07;;;;;;;;;;;-3.30;99.90;;;-4.10;100.00;98441.84;5046341;28;2029;-65
2023/02/28 06:15:34;;;;;;;;;;;-3.20;99.90;;;-4.06;100.00;98446.16;5043641;28;1384;-65
2023/02/28 06:18:01;;;;;;;;;;;-3.10;99.90;;;-4.16;100.00;98445.03;5050150;28;1029;-65
2023/02/28 06:20:29;;;;;;;;;;;-3.20;99.90;;;-4.11;100.00;98450.22;5043122;28;1427;-65
2023/02/28 06:22:58;;;;;;;;;;;-3.10;99.90;;;-4.08;100.00;98447.78;5047532;28;1698;-65
2023/02/28 06:25:27;;;;;;;;;;;-3.10;99.90;;;-4.02;100.00;98448.81;5042130;28;1431;-65
2023/02/28 06:27:55;;;;;;;;;;;-3.10;99.90;;;-3.98;100.00;98443.84;5047670;28;1002;-65
2023/02/28 06:30:26;;;;;;;;;;;-3.00;99.90;;;-3.94;100.00;98451.59;5042901;28;973;-65
2023/02/28 06:32:54;;;;;;;;;;;-3.00;99.90;;;-3.91;100.00;98445.75;5049120;28;1930;-65
2023/02/28 06:35:21;;;;;;;;;;;-3.00;99.90;;;-3.88;100.00;98451.75;5050022;28;1445;-64
2023/02/28 06:37:48;;;;;;;;;;;-2.90;99.90;;;-3.85;100.00;98459.47;5041724;28;1466;-65
2023/02/28 06:40:15;;;;;;;;;;;-2.90;99.90;;;-3.82;100.00;98453.63;5044509;28;1127;-65
2023/02/28 06:42:42;;;;;;;;;;;-2.80;99.90;;;-3.78;100.00;98458.81;5049155;28;1269;-65
2023/02/28 06:45:10;;;;;;;;;;;-2.80;99.90;;;-3.80;100.00;98455.38;5049259;28;1439;-65
2023/02/28 06:47:39;;;;;;;;;;;-2.80;99.90;;;-3.72;100.00;98455.56;5049188;28;1139;-65
2023/02/28 06:50:07;;;;;;;;;;;-2.70;99.90;;;-3.71;100.00;98462.38;5058035;28;1364;-65
2023/02/28 06:52:36;;;;;;;;;;;-2.60;99.90;;;-3.71;100.00;98466.63;5046016;28;1469;-65
2023/02/28 06:55:06;;;;;;;;;;;-2.70;99.90;;;-3.71;100.00;98466.63;5045160;28;2018;-64
2023/02/28 06:57:35;;;;;;;;;;;-2.60;99.90;;;-3.69;100.00;98468.38;5042904;28;1399;-64
2023/02/28 07:00:07;;;;;;;;;;;-2.70;99.90;;;-3.66;100.00;98468.44;5046385;28;1470;-65
2023/02/28 07:02:35;;;;;;;;;;;-2.70;99.90;;;-3.69;100.00;98472.59;5041237;28;1524;-65
2023/02/28 07:05:03;;;;;;;;;;;-2.70;99.90;;;-3.71;100.00;98477.63;5045286;28;1561;-65
2023/02/28 07:07:30;;;;;;;;;;;-2.70;99.90;;;-3.64;100.00;98476.13;5039068;28;1399;-65
2023/02/28 07:09:57;;;;;;;;;;;-2.60;99.90;;;-3.65;100.00;98480.34;5043730;28;1656;-65
2023/02/28 07:12:24;;;;;;;;;;;-2.60;99.90;;;-3.49;100.00;98481.63;5047194;28;1476;-65
2023/02/28 07:14:50;;;;;;;;;;;-2.50;99.90;;;-3.39;100.00;98485.25;5042423;28;2036;-65
2023/02/28 07:17:17;;;;;;;;;;;-2.40;99.90;;;-3.30;100.00;98484.66;5042599;28;1400;-65
2023/02/28 07:19:44;;;;;;;;;;;;;;;-3.40;100.00;98479.31;5042944;28;1402;-65
2023/02/28 07:22:11;;;;;;;;;;;-2.30;99.90;;;-3.29;100.00;98487.22;5041805;28;1371;-65
2023/02/28 07:24:41;;;;;;;;;;;-2.20;99.90;;;-3.33;100.00;98482.00;5044709;28;1387;-65
2023/02/28 07:27:08;;;;;;;;;;;-2.20;99.90;;;-3.20;100.00;98487.44;5043670;28;1475;-65
2023/02/28 07:29:34;;;;;;;;;;;-2.10;99.90;;;-3.24;100.00;98482.25;5046023;28;1503;-65
2023/02/28 07:32:01;;;;;;;;;;;-2.20;99.90;;;-3.24;100.00;98483.13;5044850;28;1635;-65
2023/02/28 07:34:28;;;;;;;;;;;-2.00;99.90;;;-3.09;100.00;98485.19;5044864;28;1910;-65
2023/02/28 07:36:55;;;;;;;;;;;-2.00;99.90;;;-3.00;100.00;98479.50;5043860;28;1602;-65
2023/02/28 07:39:22;;;;;;;;;;;-2.00;99.90;;;-2.93;100.00;98478.84;5043223;28;1423;-65
2023/02/28 07:41:50;;;;;;;;;;;-1.90;99.90;;;-2.95;100.00;98481.31;5046031;28;1419;-65
2023/02/28 07:44:17;;;;;;;;;;;-1.80;99.90;;;-2.80;100.00;98475.78;5043556;28;1384;-65
2023/02/28 07:46:44;;;;;;;;;;;-1.70;99.90;;;-2.72;100.00;98475.97;5042615;28;1470;-65
2023/02/28 07:49:10;;;;;;;;;;;-1.60;99.90;;;-2.53;100.00;98477.28;5043166;28;1455;-65
2023/02/28 07:51:37;;;;;;;;;;;-1.40;99.90;;;-2.39;100.00;98473.38;5046654;28;1367;-65
2023/02/28 07:54:04;;;;;;;;;;;-1.20;99.90;;;-2.23;100.00;98468.66;5040125;28;1906;-65
2023/02/28 07:56:31;;;;;;;;;;;-1.00;99.90;;;-2.14;100.00;98466.31;5043159;28;1553;-65
2023/02/28 07:58:58;;;;;;;;;;;-1.00;99.90;;;-2.29;100.00;98471.03;5044707;28;1407;-65
2023/02/28 08:01:25;;;;;;;;;;;-1.00;99.90;;;-2.26;100.00;98463.47;5043160;28;1451;-65
2023/02/28 08:03:54;;;;;;;;;;;-1.00;99.90;;;-2.24;100.00;98469.44;5046851;28;1423;-65
2023/02/28 08:06:23;;;;;;;;;;;-0.90;99.90;;;-2.05;100.00;98468.16;5042831;28;1574;-65
2023/02/28 08:08:50;;;;;;;;;;;-0.80;99.90;;;-2.00;100.00;98469.16;5040549;28;1412;-62
2023/02/28 08:11:17;;;;;;;;;;;-0.70;99.90;;;-2.06;100.00;98463.91;5045190;28;1392;-65
2023/02/28 08:13:45;;;;;;;;;;;;;;;-1.89;100.00;98470.25;5043763;28;1907;-65
2023/02/28 08:16:21;;;;;;;;;;;-0.60;99.90;;;-2.03;100.00;98467.41;5041934;28;1408;-65
2023/02/28 08:18:52;;;;;;;;;;;-0.60;99.90;;;-1.97;100.00;98476.84;5067733;28;1401;-63
2023/02/28 08:21:20;;;;;;;;;;;-0.70;99.90;;;-1.85;100.00;98472.00;5044137;28;1620;-65
2023/02/28 08:23:50;;;;;;;;;;;-0.50;99.90;;;-1.78;100.00;98471.31;5043849;28;1392;-63
2023/02/28 08:26:18;;;;;;;;;;;-0.50;99.90;;;-1.73;100.00;98473.97;5041188;28;1456;-64
2023/02/28 08:28:45;;;;;;;;;;;-0.40;99.90;;;-1.52;100.00;98470.97;5045432;28;1410;-64
2023/02/28 08:31:14;;;;;;;;;;;-0.20;99.90;;;-1.70;100.00;98463.84;5042106;28;1380;-64
2023/02/28 08:33:42;;;;;;;;;;;-0.30;99.90;;;-1.73;100.00;98468.88;5042284;28;1906;-63
2023/02/28 08:36:09;;;;;;;;;;;-0.40;99.90;;;-1.51;100.00;98467.59;5046080;28;1360;-63
2023/02/28 08:38:36;;;;;;;;;;;-0.20;99.90;;;-1.33;100.00;98467.94;5042864;28;1668;-64
2023/02/28 08:41:07;;;;;;;;;;;0.00;99.90;;;-1.60;100.00;98463.16;5044795;28;1363;-64
2023/02/28 08:43:34;;;;;;;;;;;-0.20;99.90;;;-1.72;100.00;98458.69;5041645;28;2237;-64
2023/02/28 08:46:01;;;;;;;;;;;-0.30;99.90;;;-1.78;100.00;98458.59;5043560;28;1380;-64
2023/02/28 08:48:30;;;;;;;;;;;-0.40;99.90;;;-1.50;100.00;98466.78;5043386;28;1359;-64
2023/02/28 08:51:09;;;;;;;;;;;-0.20;99.90;;;-1.65;100.00;98466.47;5039873;28;1554;-64
2023/02/28 08:53:37;;;;;;;;;;;-0.30;99.90;;;-1.47;100.00;98465.13;5041928;28;1910;-63
2023/02/28 08:56:06;;;;;;;;;;;-0.20;99.90;;;-1.48;100.00;98465.97;5038269;28;1488;-63
2023/02/28 08:58:34;;;;;;;;;;;-0.30;99.90;;;-1.58;100.00;98468.31;5046222;28;1358;-63
2023/02/28 09:01:07;;;;;;;;;;;-0.40;99.90;;;-1.58;100.00;98465.75;5043201;28;1375;-63
2023/02/28 09:03:34;;;;;;;;;;;-0.30;99.90;;;-1.42;100.00;98465.22;5042111;28;1402;-63
2023/02/28 09:06:02;;;;;;;;;;;-0.20;99.90;;;-1.40;100.00;98462.72;5040048;28;1375;-63
2023/02/28 09:08:30;;;;;;;;;;;-0.20;99.90;;;-1.56;100.00;98461.56;5041830;28;1493;-64
2023/02/28 09:10:59;;;;;;;;;;;-0.30;99.90;;;-1.44;100.00;98464.34;5040818;28;1387;-63
2023/02/28 09:13:28;;;;;;;;;;;-0.10;99.90;;;-1.26;100.00;98464.69;5041551;28;2076;-63
2023/02/28 09:15:58;;;;;;;;;;;0.00;99.90;;;-1.21;100.00;98467.31;5042751;28;1458;-64
2023/02/28 09:18:25;;;;;;;;;;;0.20;99.90;;;-1.29;100.00;98467.19;5044411;28;1969;-63
2023/02/28 09:20:52;;;;;;;;;;;0.20;99.90;;;-1.34;100.00;98467.94;5042505;28;1400;-64
2023/02/28 09:23:19;;;;;;;;;;;0.10;99.90;;;-0.99;100.00;98460.91;5042167;28;1433;-64
2023/02/28 09:25:48;;;;;;;;;;;0.30;99.90;;;-0.72;100.00;98452.88;5040589;28;1492;-64
2023/02/28 09:28:16;;;;;;;;;;;0.50;99.90;;;-0.64;100.00;98447.88;5044005;28;2023;-64
2023/02/28 09:30:49;;;;;;;;;;;0.60;99.90;;;-0.83;100.00;98451.84;5042221;28;1415;-64
2023/02/28 09:33:16;;;;;;;;;;;0.60;99.90;;;-0.77;100.00;98459.59;5044745;28;1648;-64
2023/02/28 09:35:43;;;;;;;;;;;0.70;99.90;;;-0.56;100.00;98453.13;5039965;28;1922;-64
2023/02/28 09:38:10;;;;;;;;;;;0.80;99.90;;;-0.45;100.00;98446.50;5042201;28;1520;-63
2023/02/28 09:41:08;;;;;;;;;;;0.80;99.90;;;-0.39;100.00;98450.81;5045804;28;1465;-63
2023/02/28 09:43:38;;;;;;;;;;;0.70;99.90;;;-0.59;100.00;98455.59;5043501;28;1495;-63
2023/02/28 09:46:33;;;;;;;;;;;0.70;99.90;;;-0.50;100.00;98454.09;5040474;28;1486;-63
2023/02/28 09:49:14;;;;;;;;;;;0.80;99.90;;;-0.82;100.00;98452.69;5042399;28;1498;-63
2023/02/28 09:51:59;;;;;;;;;;;0.50;99.90;;;-0.78;100.00;98457.88;5035823;28;1395;-63
2023/02/28 09:54:30;;;;;;;;;;;0.40;99.90;;;-0.85;100.00;98462.00;5042642;28;1965;-63
2023/02/28 09:57:32;;;;;;;;;;;0.40;99.90;;;-0.60;100.00;98444.56;5042116;28;1407;-65
2023/02/28 10:00:07;;;;;;;;;;;0.40;99.90;;;-0.49;100.00;98447.28;5036737;28;1386;-63
2023/02/28 10:02:37;;;;;;;;;;;0.60;99.90;;;-0.36;100.00;98445.78;5042247;28;1601;-63
2023/02/28 10:05:11;;;;;;;;;;;0.80;99.90;;;-0.22;100.00;98444.28;5043335;28;1578;-64
2023/02/28 10:08:15;;;;;;;;;;;1.00;99.90;;;-0.05;100.00;98439.41;5043397;28;1670;-64
2023/02/28 10:10:52;;;;;;;;;;;1.30;99.90;;;0.40;100.00;98448.50;5050847;28;1356;-64
2023/02/28 10:14:02;;;;;;;;;;;1.70;99.90;;;0.70;100.00;98431.78;5044368;28;1427;-64
2023/02/28 10:16:36;;;;;;;;;;;2.00;99.90;;;1.12;100.00;98440.69;5043890;28;1550;-64
2023/02/28 10:19:07;;;;;;;;;;;2.60;99.90;;;0.82;100.00;98439.56;5028489;28;1521;-64
2023/02/28 10:21:37;;;;;;;;;;;2.40;99.90;;;1.26;100.00;98428.91;5043551;28;1437;-63
2023/02/28 10:24:44;;;;;;;;;;;2.60;99.90;;;0.73;100.00;98439.47;5040835;28;1475;-64
2023/02/28 10:27:24;;;;;;;;;;;2.30;99.90;;;0.21;100.00;98442.31;5039877;28;1456;-64
2023/02/28 10:29:56;;;;;;;;;;;1.60;99.90;;;0.09;100.00;98443.00;5044751;28;1578;-63
2023/02/28 10:32:29;;;;;;;;;;;1.50;99.90;;;0.03;100.00;98435.28;5041111;28;1626;-65
2023/02/28 10:35:00;;;;;;;;;;;1.40;99.90;;;0.22;100.00;98435.50;5044330;28;2013;-65
2023/02/28 10:37:28;;;;;;;;;;;1.40;99.90;;;0.44;100.00;98429.81;5029451;28;1514;-65
2023/02/28 10:39:56;;;;;;;;;;;1.60;99.90;;;0.50;100.00;98434.13;5042817;28;1403;-66
2023/02/28 10:42:28;;;;;;;;;;;1.70;99.90;;;0.73;100.00;98419.91;5047173;28;1740;-65
2023/02/28 10:45:16;;;;;;;;;;;1.90;99.90;;;0.69;100.00;98417.31;5043805;28;1419;-66
2023/02/28 10:48:06;;;;;;;;;;;2.00;99.90;;;1.03;100.00;98411.66;5062430;28;1686;-66
2023/02/28 10:50:51;;;;;;;;;;;2.30;99.90;;;0.98;100.00;98412.44;5038516;28;1449;-66
2023/02/28 10:53:22;;;;;;;;;;;2.20;99.90;;;1.01;100.00;98398.00;5043358;28;1400;-65
2023/02/28 10:56:03;;;;;;;;;;;2.50;99.90;;;1.08;100.00;98403.19;5046322;28;1914;-65
2023/02/28 10:58:42;;;;;;;;;;;2.60;99.90;;;1.30;100.00;98404.19;5045385;28;1427;-66
2023/02/28 11:01:23;;;;;;;;;;;2.60;99.90;;;0.95;100.00;98403.06;5041018;28;1540;-65
2023/02/28 11:03:52;;;;;;;;;;;2.40;99.90;;;1.31;100.00;98401.66;5040926;28;1622;-65
2023/02/28 11:06:24;;;;;;;;;;;2.60;99.90;;;1.50;100.00;98414.56;5039818;28;1360;-65
2023/02/28 11:08:56;;;;;;;;;;;2.80;99.90;;;1.19;100.00;98407.53;5066693;28;1336;-66
2023/02/28 11:11:25;;;;;;;;;;;2.60;99.90;;;0.71;100.00;98411.38;5024947;28;1464;-66
2023/02/28 11:13:56;;;;;;;;;;;2.20;99.90;;;0.67;100.00;98412.19;5045780;28;1520;-66
2023/02/28 11:16:32;;;;;;;;;;;2.00;99.90;;;0.72;100.00;98410.50;5044581;28;1914;-65
2023/02/28 11:18:59;;;;;;;;;;;1.90;99.90;;;0.59;100.00;98408.66;5042228;28;1762;-65
2023/02/28 11:21:29;;;;;;;;;;;1.80;99.90;;;0.76;100.00;98408.84;5043708;28;1718;-65
2023/02/28 11:24:05;;;;;;;;;;;2.00;99.90;;;0.85;100.00;98401.28;5042166;28;1620;-67
2023/02/28 11:26:50;;;;;;;;;;;2.00;99.90;;;1.15;100.00;98399.81;5060081;28;1590;-66
2023/02/28 11:29:29;;;;;;;;;;;2.20;99.90;;;1.13;100.00;98404.91;5046242;28;1722;-66
2023/02/28 11:32:11;;;;;;;;;;;2.20;99.90;;;1.35;100.00;98402.56;5044645;28;1478;-66
2023/02/28 11:34:39;;;;;;;;;;;2.50;99.90;;;1.27;100.00;98393.94;5046157;28;1985;-65
2023/02/28 11:37:12;;;;;;;;;;;2.60;99.90;;;1.50;100.00;98397.50;5042203;28;1396;-66
2023/02/28 11:39:39;;;;;;;;;;;2.60;99.90;;;1.59;100.00;98401.84;5048397;28;1097;-66